sensor_id;sensor_type;location;lat;lon;timestamp;P1;durP1;ratioP1;P2;durP2;ratioP2
18411;SDS011;27097;51.738;19.472;2023-07-02T00:01:35;18.17;;;11.00;;
18411;SDS011;27097;51.738;19.472;2023-07-02T00:04:02;16.67;;;9.93;;
18411;SDS011;27097;51.738;19.472;2023-07-02T00:06:29;17.73;;;10.07;;
18411;SDS011;27097;51.738;19.472;2023-07-02T00:08:57;17.52;;;10.13;;
18411;SDS011;27097;51.738;19.472;2023-07-02T00:11:24;15.18;;;9.43;;
18411;SDS011;27097;51.738;19.472;2023-07-02T00:13:51;16.55;;;9.38;;
18411;SDS011;27097;51.738;19.472;2023-07-02T00:16:20;15.45;;;9.77;;
18411;SDS011;27097;51.738;19.472;2023-07-02T00:18:48;13.63;;;9.50;;
18411;SDS011;27097;51.738;19.472;2023-07-02T00:21:17;16.90;;;9.68;;
18411;SDS011;27097;51.738;19.472;2023-07-02T00:23:45;16.58;;;9.30;;
18411;SDS011;27097;51.738;19.472;2023-07-02T00:26:12;16.08;;;9.70;;
18411;SDS011;27097;51.738;19.472;2023-07-02T00:28:39;14.73;;;8.80;;
18411;SDS011;27097;51.738;19.472;2023-07-02T00:31:06;15.27;;;9.23;;
18411;SDS011;27097;51.738;19.472;2023-07-02T00:33:33;14.02;;;8.60;;
18411;SDS011;27097;51.738;19.472;2023-07-02T00:36:01;14.63;;;9.18;;
18411;SDS011;27097;51.738;19.472;2023-07-02T00:38:28;17.17;;;9.38;;
18411;SDS011;27097;51.738;19.472;2023-07-02T00:40:55;16.48;;;9.40;;
18411;SDS011;27097;51.738;19.472;2023-07-02T00:43:22;14.77;;;8.70;;
18411;SDS011;27097;51.738;19.472;2023-07-02T00:45:49;13.40;;;8.50;;
18411;SDS011;27097;51.738;19.472;2023-07-02T00:48:17;15.20;;;8.88;;
18411;SDS011;27097;51.738;19.472;2023-07-02T00:50:44;14.10;;;8.63;;
18411;SDS011;27097;51.738;19.472;2023-07-02T00:53:12;13.45;;;8.68;;
18411;SDS011;27097;51.738;19.472;2023-07-02T00:55:39;16.67;;;8.57;;
18411;SDS011;27097;51.738;19.472;2023-07-02T00:58:06;13.02;;;8.27;;
18411;SDS011;27097;51.738;19.472;2023-07-02T01:00:33;12.52;;;7.78;;
18411;SDS011;27097;51.738;19.472;2023-07-02T01:03:00;12.32;;;8.02;;
18411;SDS011;27097;51.738;19.472;2023-07-02T01:05:28;11.23;;;7.75;;
18411;SDS011;27097;51.738;19.472;2023-07-02T01:08:00;13.25;;;8.57;;
18411;SDS011;27097;51.738;19.472;2023-07-02T01:10:28;12.77;;;7.75;;
18411;SDS011;27097;51.738;19.472;2023-07-02T01:12:56;15.00;;;8.65;;
18411;SDS011;27097;51.738;19.472;2023-07-02T01:15:26;14.05;;;8.02;;
18411;SDS011;27097;51.738;19.472;2023-07-02T01:17:53;12.55;;;7.93;;
18411;SDS011;27097;51.738;19.472;2023-07-02T01:20:23;11.88;;;8.13;;
18411;SDS011;27097;51.738;19.472;2023-07-02T01:22:52;11.45;;;7.57;;
18411;SDS011;27097;51.738;19.472;2023-07-02T01:25:19;11.98;;;7.30;;
18411;SDS011;27097;51.738;19.472;2023-07-02T01:27:50;14.00;;;8.18;;
18411;SDS011;27097;51.738;19.472;2023-07-02T01:30:18;12.85;;;8.00;;
18411;SDS011;27097;51.738;19.472;2023-07-02T01:32:45;13.95;;;7.90;;
18411;SDS011;27097;51.738;19.472;2023-07-02T01:35:12;12.52;;;8.00;;
18411;SDS011;27097;51.738;19.472;2023-07-02T01:37:40;13.35;;;8.00;;
18411;SDS011;27097;51.738;19.472;2023-07-02T01:40:07;12.32;;;7.97;;
18411;SDS011;27097;51.738;19.472;2023-07-02T01:42:34;11.95;;;7.95;;
18411;SDS011;27097;51.738;19.472;2023-07-02T01:45:01;12.38;;;8.02;;
18411;SDS011;27097;51.738;19.472;2023-07-02T01:47:28;12.88;;;7.72;;
18411;SDS011;27097;51.738;19.472;2023-07-02T01:49:55;11.52;;;7.85;;
18411;SDS011;27097;51.738;19.472;2023-07-02T01:52:22;12.80;;;7.93;;
18411;SDS011;27097;51.738;19.472;2023-07-02T01:54:50;11.70;;;7.97;;
18411;SDS011;27097;51.738;19.472;2023-07-02T01:57:17;11.68;;;7.57;;
18411;SDS011;27097;51.738;19.472;2023-07-02T01:59:44;13.13;;;8.20;;
18411;SDS011;27097;51.738;19.472;2023-07-02T02:02:11;11.85;;;7.95;;
18411;SDS011;27097;51.738;19.472;2023-07-02T02:04:38;14.50;;;7.80;;
18411;SDS011;27097;51.738;19.472;2023-07-02T02:07:05;13.60;;;8.00;;
18411;SDS011;27097;51.738;19.472;2023-07-02T02:09:31;11.32;;;7.50;;
18411;SDS011;27097;51.738;19.472;2023-07-02T02:12:00;11.27;;;7.78;;
18411;SDS011;27097;51.738;19.472;2023-07-02T02:14:27;10.65;;;7.30;;
18411;SDS011;27097;51.738;19.472;2023-07-02T02:16:53;11.02;;;7.60;;
18411;SDS011;27097;51.738;19.472;2023-07-02T02:19:20;11.70;;;7.65;;
18411;SDS011;27097;51.738;19.472;2023-07-02T02:21:47;12.55;;;7.85;;
18411;SDS011;27097;51.738;19.472;2023-07-02T02:24:14;11.88;;;7.68;;
18411;SDS011;27097;51.738;19.472;2023-07-02T02:26:41;10.68;;;6.85;;
18411;SDS011;27097;51.738;19.472;2023-07-02T02:29:09;11.15;;;7.18;;
18411;SDS011;27097;51.738;19.472;2023-07-02T02:31:36;10.48;;;7.20;;
18411;SDS011;27097;51.738;19.472;2023-07-02T02:34:03;10.45;;;7.45;;
18411;SDS011;27097;51.738;19.472;2023-07-02T02:36:29;10.48;;;6.75;;
18411;SDS011;27097;51.738;19.472;2023-07-02T02:38:57;10.10;;;7.00;;
18411;SDS011;27097;51.738;19.472;2023-07-02T02:41:24;11.10;;;7.05;;
18411;SDS011;27097;51.738;19.472;2023-07-02T02:43:51;10.13;;;6.90;;
18411;SDS011;27097;51.738;19.472;2023-07-02T02:46:21;10.43;;;7.03;;
18411;SDS011;27097;51.738;19.472;2023-07-02T02:48:48;10.75;;;7.20;;
18411;SDS011;27097;51.738;19.472;2023-07-02T02:51:15;10.07;;;6.88;;
18411;SDS011;27097;51.738;19.472;2023-07-02T02:53:42;10.00;;;6.95;;
18411;SDS011;27097;51.738;19.472;2023-07-02T02:56:08;10.30;;;7.15;;
18411;SDS011;27097;51.738;19.472;2023-07-02T02:58:35;10.98;;;7.55;;
18411;SDS011;27097;51.738;19.472;2023-07-02T03:01:02;10.10;;;6.88;;
18411;SDS011;27097;51.738;19.472;2023-07-02T03:03:37;10.90;;;7.22;;
18411;SDS011;27097;51.738;19.472;2023-07-02T03:06:09;10.27;;;7.47;;
18411;SDS011;27097;51.738;19.472;2023-07-02T03:08:36;11.05;;;7.32;;
18411;SDS011;27097;51.738;19.472;2023-07-02T03:11:03;10.27;;;7.18;;
18411;SDS011;27097;51.738;19.472;2023-07-02T03:13:30;9.95;;;7.30;;
18411;SDS011;27097;51.738;19.472;2023-07-02T03:15:57;9.88;;;7.15;;
18411;SDS011;27097;51.738;19.472;2023-07-02T03:18:24;12.20;;;7.13;;
18411;SDS011;27097;51.738;19.472;2023-07-02T03:20:52;10.13;;;6.95;;
18411;SDS011;27097;51.738;19.472;2023-07-02T03:23:19;9.20;;;6.68;;
18411;SDS011;27097;51.738;19.472;2023-07-02T03:25:45;10.45;;;6.85;;
18411;SDS011;27097;51.738;19.472;2023-07-02T03:28:12;9.88;;;6.45;;
18411;SDS011;27097;51.738;19.472;2023-07-02T03:30:39;10.23;;;6.78;;
18411;SDS011;27097;51.738;19.472;2023-07-02T03:33:08;8.35;;;6.20;;
18411;SDS011;27097;51.738;19.472;2023-07-02T03:35:35;9.85;;;6.82;;
18411;SDS011;27097;51.738;19.472;2023-07-02T03:38:03;9.68;;;6.70;;
18411;SDS011;27097;51.738;19.472;2023-07-02T03:40:30;9.77;;;6.43;;
18411;SDS011;27097;51.738;19.472;2023-07-02T03:42:57;9.05;;;6.40;;
18411;SDS011;27097;51.738;19.472;2023-07-02T03:45:24;9.90;;;6.60;;
18411;SDS011;27097;51.738;19.472;2023-07-02T03:47:51;8.98;;;6.90;;
18411;SDS011;27097;51.738;19.472;2023-07-02T03:50:18;8.60;;;6.32;;
18411;SDS011;27097;51.738;19.472;2023-07-02T03:52:44;8.93;;;6.35;;
18411;SDS011;27097;51.738;19.472;2023-07-02T03:55:13;9.15;;;6.50;;
18411;SDS011;27097;51.738;19.472;2023-07-02T03:57:41;8.75;;;6.43;;
18411;SDS011;27097;51.738;19.472;2023-07-02T04:00:08;9.63;;;6.32;;
18411;SDS011;27097;51.738;19.472;2023-07-02T04:02:36;9.55;;;6.47;;
18411;SDS011;27097;51.738;19.472;2023-07-02T04:05:03;10.50;;;6.55;;
18411;SDS011;27097;51.738;19.472;2023-07-02T04:07:30;10.00;;;6.53;;
18411;SDS011;27097;51.738;19.472;2023-07-02T04:09:57;9.75;;;5.95;;
18411;SDS011;27097;51.738;19.472;2023-07-02T04:12:25;8.85;;;6.40;;
18411;SDS011;27097;51.738;19.472;2023-07-02T04:14:52;10.60;;;6.40;;
18411;SDS011;27097;51.738;19.472;2023-07-02T04:17:19;8.98;;;6.70;;
18411;SDS011;27097;51.738;19.472;2023-07-02T04:19:46;8.90;;;6.43;;
18411;SDS011;27097;51.738;19.472;2023-07-02T04:22:13;9.38;;;6.53;;
18411;SDS011;27097;51.738;19.472;2023-07-02T04:24:40;9.75;;;6.35;;
18411;SDS011;27097;51.738;19.472;2023-07-02T04:27:07;9.23;;;6.30;;
18411;SDS011;27097;51.738;19.472;2023-07-02T04:29:35;8.57;;;6.00;;
18411;SDS011;27097;51.738;19.472;2023-07-02T04:32:02;10.18;;;6.60;;
18411;SDS011;27097;51.738;19.472;2023-07-02T04:34:29;9.90;;;6.05;;
18411;SDS011;27097;51.738;19.472;2023-07-02T04:36:56;9.15;;;6.63;;
18411;SDS011;27097;51.738;19.472;2023-07-02T04:39:23;8.18;;;6.03;;
18411;SDS011;27097;51.738;19.472;2023-07-02T04:41:50;9.57;;;6.32;;
18411;SDS011;27097;51.738;19.472;2023-07-02T04:44:17;10.07;;;6.32;;
18411;SDS011;27097;51.738;19.472;2023-07-02T04:46:55;9.75;;;6.75;;
18411;SDS011;27097;51.738;19.472;2023-07-02T04:49:23;8.90;;;6.18;;
18411;SDS011;27097;51.738;19.472;2023-07-02T04:51:50;10.73;;;6.47;;
18411;SDS011;27097;51.738;19.472;2023-07-02T04:54:18;8.85;;;5.78;;
18411;SDS011;27097;51.738;19.472;2023-07-02T04:56:45;9.43;;;5.97;;
18411;SDS011;27097;51.738;19.472;2023-07-02T04:59:12;9.95;;;6.07;;
18411;SDS011;27097;51.738;19.472;2023-07-02T05:01:40;8.52;;;5.53;;
18411;SDS011;27097;51.738;19.472;2023-07-02T05:04:08;7.75;;;5.60;;
18411;SDS011;27097;51.738;19.472;2023-07-02T05:06:36;9.27;;;6.28;;
18411;SDS011;27097;51.738;19.472;2023-07-02T05:09:03;8.90;;;6.00;;
18411;SDS011;27097;51.738;19.472;2023-07-02T05:11:30;11.13;;;6.55;;
18411;SDS011;27097;51.738;19.472;2023-07-02T05:13:57;8.40;;;5.88;;
18411;SDS011;27097;51.738;19.472;2023-07-02T05:16:23;10.57;;;6.50;;
18411;SDS011;27097;51.738;19.472;2023-07-02T05:18:50;10.88;;;6.00;;
18411;SDS011;27097;51.738;19.472;2023-07-02T05:21:19;7.85;;;5.63;;
18411;SDS011;27097;51.738;19.472;2023-07-02T05:23:46;8.43;;;6.20;;
18411;SDS011;27097;51.738;19.472;2023-07-02T05:26:13;8.73;;;5.90;;
18411;SDS011;27097;51.738;19.472;2023-07-02T05:28:40;9.45;;;6.18;;
18411;SDS011;27097;51.738;19.472;2023-07-02T05:31:07;10.95;;;6.13;;
18411;SDS011;27097;51.738;19.472;2023-07-02T05:33:34;9.68;;;6.10;;
18411;SDS011;27097;51.738;19.472;2023-07-02T05:36:01;8.13;;;5.65;;
18411;SDS011;27097;51.738;19.472;2023-07-02T05:38:29;9.00;;;6.05;;
18411;SDS011;27097;51.738;19.472;2023-07-02T05:40:56;8.23;;;5.55;;
18411;SDS011;27097;51.738;19.472;2023-07-02T05:43:23;9.02;;;6.10;;
18411;SDS011;27097;51.738;19.472;2023-07-02T05:45:50;10.48;;;6.13;;
18411;SDS011;27097;51.738;19.472;2023-07-02T05:48:17;8.80;;;5.88;;
18411;SDS011;27097;51.738;19.472;2023-07-02T05:50:44;8.52;;;5.68;;
18411;SDS011;27097;51.738;19.472;2023-07-02T05:53:11;9.85;;;5.82;;
18411;SDS011;27097;51.738;19.472;2023-07-02T05:55:39;10.45;;;5.80;;
18411;SDS011;27097;51.738;19.472;2023-07-02T05:58:08;9.93;;;5.80;;
18411;SDS011;27097;51.738;19.472;2023-07-02T06:00:35;7.50;;;5.53;;
18411;SDS011;27097;51.738;19.472;2023-07-02T06:03:01;9.18;;;5.60;;
18411;SDS011;27097;51.738;19.472;2023-07-02T06:05:29;10.70;;;6.05;;
18411;SDS011;27097;51.738;19.472;2023-07-02T06:07:55;11.63;;;6.00;;
18411;SDS011;27097;51.738;19.472;2023-07-02T06:10:22;11.45;;;6.32;;
18411;SDS011;27097;51.738;19.472;2023-07-02T06:12:50;16.02;;;5.95;;
18411;SDS011;27097;51.738;19.472;2023-07-02T06:15:18;11.05;;;6.05;;
18411;SDS011;27097;51.738;19.472;2023-07-02T06:17:45;10.25;;;6.10;;
18411;SDS011;27097;51.738;19.472;2023-07-02T06:20:12;9.50;;;6.05;;
18411;SDS011;27097;51.738;19.472;2023-07-02T06:22:39;8.95;;;5.93;;
18411;SDS011;27097;51.738;19.472;2023-07-02T06:25:07;10.30;;;6.13;;
18411;SDS011;27097;51.738;19.472;2023-07-02T06:27:34;7.65;;;5.32;;
18411;SDS011;27097;51.738;19.472;2023-07-02T06:30:02;14.98;;;5.68;;
18411;SDS011;27097;51.738;19.472;2023-07-02T06:32:31;14.45;;;5.85;;
18411;SDS011;27097;51.738;19.472;2023-07-02T06:34:58;10.48;;;5.93;;
18411;SDS011;27097;51.738;19.472;2023-07-02T06:37:24;11.40;;;5.97;;
18411;SDS011;27097;51.738;19.472;2023-07-02T06:39:51;14.15;;;5.50;;
18411;SDS011;27097;51.738;19.472;2023-07-02T06:42:18;13.68;;;6.03;;
18411;SDS011;27097;51.738;19.472;2023-07-02T06:44:45;9.88;;;5.45;;
18411;SDS011;27097;51.738;19.472;2023-07-02T06:47:13;10.05;;;5.30;;
18411;SDS011;27097;51.738;19.472;2023-07-02T06:49:40;12.15;;;5.68;;
18411;SDS011;27097;51.738;19.472;2023-07-02T06:52:07;14.65;;;5.47;;
18411;SDS011;27097;51.738;19.472;2023-07-02T06:54:34;11.13;;;5.25;;
18411;SDS011;27097;51.738;19.472;2023-07-02T06:57:01;16.75;;;5.50;;
18411;SDS011;27097;51.738;19.472;2023-07-02T06:59:27;13.82;;;5.40;;
18411;SDS011;27097;51.738;19.472;2023-07-02T07:01:54;15.93;;;5.05;;
18411;SDS011;27097;51.738;19.472;2023-07-02T07:04:23;12.52;;;5.25;;
18411;SDS011;27097;51.738;19.472;2023-07-02T07:06:50;17.95;;;5.20;;
18411;SDS011;27097;51.738;19.472;2023-07-02T07:09:16;14.13;;;5.00;;
18411;SDS011;27097;51.738;19.472;2023-07-02T07:11:43;9.23;;;5.05;;
18411;SDS011;27097;51.738;19.472;2023-07-02T07:14:13;13.13;;;5.07;;
18411;SDS011;27097;51.738;19.472;2023-07-02T07:16:40;11.73;;;4.78;;
18411;SDS011;27097;51.738;19.472;2023-07-02T07:19:07;11.48;;;5.07;;
18411;SDS011;27097;51.738;19.472;2023-07-02T07:21:36;10.90;;;5.15;;
18411;SDS011;27097;51.738;19.472;2023-07-02T07:24:03;16.13;;;5.80;;
18411;SDS011;27097;51.738;19.472;2023-07-02T07:26:30;8.82;;;4.65;;
18411;SDS011;27097;51.738;19.472;2023-07-02T07:28:57;30.23;;;5.32;;
18411;SDS011;27097;51.738;19.472;2023-07-02T07:31:24;15.88;;;4.72;;
18411;SDS011;27097;51.738;19.472;2023-07-02T07:33:51;10.40;;;4.80;;
18411;SDS011;27097;51.738;19.472;2023-07-02T07:36:18;16.40;;;5.10;;
18411;SDS011;27097;51.738;19.472;2023-07-02T07:38:47;19.92;;;5.57;;
18411;SDS011;27097;51.738;19.472;2023-07-02T07:41:14;10.05;;;4.72;;
18411;SDS011;27097;51.738;19.472;2023-07-02T07:43:47;13.98;;;4.97;;
18411;SDS011;27097;51.738;19.472;2023-07-02T07:46:13;19.77;;;4.43;;
18411;SDS011;27097;51.738;19.472;2023-07-02T07:48:40;12.60;;;5.15;;
18411;SDS011;27097;51.738;19.472;2023-07-02T07:51:08;11.68;;;4.65;;
18411;SDS011;27097;51.738;19.472;2023-07-02T07:53:37;15.60;;;4.70;;
18411;SDS011;27097;51.738;19.472;2023-07-02T07:56:09;8.75;;;4.43;;
18411;SDS011;27097;51.738;19.472;2023-07-02T07:58:40;7.30;;;4.07;;
18411;SDS011;27097;51.738;19.472;2023-07-02T08:01:07;7.50;;;4.25;;
18411;SDS011;27097;51.738;19.472;2023-07-02T08:03:36;11.52;;;4.45;;
18411;SDS011;27097;51.738;19.472;2023-07-02T08:06:03;8.35;;;4.25;;
18411;SDS011;27097;51.738;19.472;2023-07-02T08:08:31;9.45;;;4.00;;
18411;SDS011;27097;51.738;19.472;2023-07-02T08:10:58;9.63;;;4.18;;
18411;SDS011;27097;51.738;19.472;2023-07-02T08:13:26;8.57;;;3.90;;
18411;SDS011;27097;51.738;19.472;2023-07-02T08:15:53;10.00;;;4.40;;
18411;SDS011;27097;51.738;19.472;2023-07-02T08:18:23;10.95;;;3.88;;
18411;SDS011;27097;51.738;19.472;2023-07-02T08:20:52;6.45;;;3.80;;
18411;SDS011;27097;51.738;19.472;2023-07-02T08:23:19;9.18;;;4.05;;
18411;SDS011;27097;51.738;19.472;2023-07-02T08:25:46;10.45;;;4.10;;
18411;SDS011;27097;51.738;19.472;2023-07-02T08:28:13;7.65;;;3.70;;
18411;SDS011;27097;51.738;19.472;2023-07-02T08:30:42;6.88;;;3.92;;
18411;SDS011;27097;51.738;19.472;2023-07-02T08:33:09;7.22;;;3.90;;
18411;SDS011;27097;51.738;19.472;2023-07-02T08:35:35;10.02;;;3.40;;
18411;SDS011;27097;51.738;19.472;2023-07-02T08:38:02;6.55;;;3.30;;
18411;SDS011;27097;51.738;19.472;2023-07-02T08:40:29;12.25;;;3.58;;
18411;SDS011;27097;51.738;19.472;2023-07-02T08:42:56;7.15;;;3.50;;
18411;SDS011;27097;51.738;19.472;2023-07-02T08:45:23;6.45;;;3.53;;
18411;SDS011;27097;51.738;19.472;2023-07-02T08:47:52;6.60;;;3.67;;
18411;SDS011;27097;51.738;19.472;2023-07-02T08:50:21;6.55;;;3.35;;
18411;SDS011;27097;51.738;19.472;2023-07-02T08:52:49;4.95;;;2.97;;
18411;SDS011;27097;51.738;19.472;2023-07-02T08:55:16;8.48;;;3.33;;
18411;SDS011;27097;51.738;19.472;2023-07-02T09:00:16;5.38;;;3.15;;
18411;SDS011;27097;51.738;19.472;2023-07-02T09:02:43;7.78;;;3.30;;
18411;SDS011;27097;51.738;19.472;2023-07-02T09:05:13;5.47;;;3.08;;
18411;SDS011;27097;51.738;19.472;2023-07-02T09:07:45;5.60;;;2.75;;
18411;SDS011;27097;51.738;19.472;2023-07-02T09:10:27;4.97;;;3.30;;
18411;SDS011;27097;51.738;19.472;2023-07-02T09:13:04;4.40;;;3.45;;
18411;SDS011;27097;51.738;19.472;2023-07-02T09:15:37;6.65;;;3.00;;
18411;SDS011;27097;51.738;19.472;2023-07-02T09:18:14;3.25;;;2.70;;
18411;SDS011;27097;51.738;19.472;2023-07-02T09:20:43;4.15;;;2.90;;
18411;SDS011;27097;51.738;19.472;2023-07-02T09:23:10;5.82;;;2.60;;
18411;SDS011;27097;51.738;19.472;2023-07-02T09:25:38;3.22;;;2.70;;
18411;SDS011;27097;51.738;19.472;2023-07-02T09:28:16;4.38;;;2.65;;
18411;SDS011;27097;51.738;19.472;2023-07-02T09:30:54;4.85;;;2.80;;
18411;SDS011;27097;51.738;19.472;2023-07-02T09:33:22;4.72;;;2.58;;
18411;SDS011;27097;51.738;19.472;2023-07-02T09:35:51;4.18;;;2.55;;
18411;SDS011;27097;51.738;19.472;2023-07-02T09:38:19;6.70;;;2.72;;
18411;SDS011;27097;51.738;19.472;2023-07-02T09:40:47;7.55;;;2.80;;
18411;SDS011;27097;51.738;19.472;2023-07-02T09:43:17;6.18;;;2.65;;
18411;SDS011;27097;51.738;19.472;2023-07-02T09:45:45;7.90;;;2.42;;
18411;SDS011;27097;51.738;19.472;2023-07-02T09:48:14;7.28;;;2.60;;
18411;SDS011;27097;51.738;19.472;2023-07-02T09:50:42;5.22;;;2.75;;
18411;SDS011;27097;51.738;19.472;2023-07-02T09:53:11;6.25;;;2.40;;
18411;SDS011;27097;51.738;19.472;2023-07-02T09:55:38;6.68;;;2.40;;
18411;SDS011;27097;51.738;19.472;2023-07-02T09:58:08;3.17;;;2.40;;
18411;SDS011;27097;51.738;19.472;2023-07-02T10:00:37;7.10;;;2.80;;
18411;SDS011;27097;51.738;19.472;2023-07-02T10:03:04;4.30;;;2.58;;
18411;SDS011;27097;51.738;19.472;2023-07-02T10:05:32;7.00;;;2.40;;
18411;SDS011;27097;51.738;19.472;2023-07-02T10:08:10;5.03;;;2.80;;
18411;SDS011;27097;51.738;19.472;2023-07-02T10:10:40;6.50;;;2.50;;
18411;SDS011;27097;51.738;19.472;2023-07-02T10:13:07;5.03;;;2.72;;
18411;SDS011;27097;51.738;19.472;2023-07-02T10:15:34;4.50;;;2.47;;
18411;SDS011;27097;51.738;19.472;2023-07-02T10:18:03;5.72;;;2.45;;
18411;SDS011;27097;51.738;19.472;2023-07-02T10:20:31;6.05;;;2.70;;
18411;SDS011;27097;51.738;19.472;2023-07-02T10:22:59;3.50;;;2.13;;
18411;SDS011;27097;51.738;19.472;2023-07-02T10:25:28;4.90;;;2.33;;
18411;SDS011;27097;51.738;19.472;2023-07-02T10:27:56;11.20;;;2.40;;
18411;SDS011;27097;51.738;19.472;2023-07-02T10:30:30;6.78;;;2.72;;
18411;SDS011;27097;51.738;19.472;2023-07-02T10:33:06;5.82;;;2.30;;
18411;SDS011;27097;51.738;19.472;2023-07-02T10:35:35;4.90;;;2.40;;
18411;SDS011;27097;51.738;19.472;2023-07-02T10:38:06;4.18;;;2.33;;
18411;SDS011;27097;51.738;19.472;2023-07-02T10:40:34;2.67;;;1.83;;
18411;SDS011;27097;51.738;19.472;2023-07-02T10:43:01;3.03;;;2.25;;
18411;SDS011;27097;51.738;19.472;2023-07-02T10:45:31;2.78;;;2.28;;
18411;SDS011;27097;51.738;19.472;2023-07-02T10:48:08;5.15;;;2.60;;
18411;SDS011;27097;51.738;19.472;2023-07-02T10:50:35;3.53;;;2.53;;
18411;SDS011;27097;51.738;19.472;2023-07-02T10:53:02;5.32;;;2.47;;
18411;SDS011;27097;51.738;19.472;2023-07-02T10:55:30;2.78;;;2.35;;
18411;SDS011;27097;51.738;19.472;2023-07-02T10:58:04;3.42;;;2.50;;
18411;SDS011;27097;51.738;19.472;2023-07-02T11:00:42;4.32;;;2.40;;
18411;SDS011;27097;51.738;19.472;2023-07-02T11:03:15;7.03;;;2.90;;
18411;SDS011;27097;51.738;19.472;2023-07-02T11:05:44;5.65;;;2.42;;
18411;SDS011;27097;51.738;19.472;2023-07-02T11:08:11;4.28;;;2.58;;
18411;SDS011;27097;51.738;19.472;2023-07-02T11:10:38;3.97;;;2.50;;
18411;SDS011;27097;51.738;19.472;2023-07-02T11:13:13;5.93;;;2.45;;
18411;SDS011;27097;51.738;19.472;2023-07-02T11:15:40;6.60;;;2.80;;
18411;SDS011;27097;51.738;19.472;2023-07-02T11:18:10;3.22;;;2.22;;
18411;SDS011;27097;51.738;19.472;2023-07-02T11:20:38;3.40;;;2.45;;
18411;SDS011;27097;51.738;19.472;2023-07-02T11:23:16;3.15;;;2.20;;
18411;SDS011;27097;51.738;19.472;2023-07-02T11:25:53;2.50;;;2.30;;
18411;SDS011;27097;51.738;19.472;2023-07-02T11:28:22;2.45;;;2.25;;
18411;SDS011;27097;51.738;19.472;2023-07-02T11:30:49;5.47;;;2.67;;
18411;SDS011;27097;51.738;19.472;2023-07-02T11:33:16;4.30;;;2.50;;
18411;SDS011;27097;51.738;19.472;2023-07-02T11:35:43;5.15;;;2.67;;
18411;SDS011;27097;51.738;19.472;2023-07-02T11:38:10;7.60;;;3.80;;
18411;SDS011;27097;51.738;19.472;2023-07-02T11:40:37;6.88;;;2.75;;
18411;SDS011;27097;51.738;19.472;2023-07-02T11:43:05;5.22;;;2.30;;
18411;SDS011;27097;51.738;19.472;2023-07-02T11:45:33;9.98;;;2.72;;
18411;SDS011;27097;51.738;19.472;2023-07-02T11:48:00;6.32;;;2.47;;
18411;SDS011;27097;51.738;19.472;2023-07-02T11:50:27;3.45;;;2.17;;
18411;SDS011;27097;51.738;19.472;2023-07-02T11:52:55;2.75;;;2.35;;
18411;SDS011;27097;51.738;19.472;2023-07-02T11:55:22;4.82;;;2.42;;
18411;SDS011;27097;51.738;19.472;2023-07-02T11:57:49;3.45;;;2.10;;
18411;SDS011;27097;51.738;19.472;2023-07-02T12:00:16;6.28;;;2.22;;
18411;SDS011;27097;51.738;19.472;2023-07-02T12:02:44;6.22;;;2.30;;
18411;SDS011;27097;51.738;19.472;2023-07-02T12:05:11;5.75;;;2.15;;
18411;SDS011;27097;51.738;19.472;2023-07-02T12:07:38;4.80;;;2.50;;
18411;SDS011;27097;51.738;19.472;2023-07-02T12:10:05;6.82;;;2.30;;
18411;SDS011;27097;51.738;19.472;2023-07-02T12:12:33;4.47;;;2.15;;
18411;SDS011;27097;51.738;19.472;2023-07-02T12:15:02;5.93;;;2.20;;
18411;SDS011;27097;51.738;19.472;2023-07-02T12:17:30;2.85;;;2.10;;
18411;SDS011;27097;51.738;19.472;2023-07-02T12:19:58;3.33;;;2.10;;
18411;SDS011;27097;51.738;19.472;2023-07-02T12:22:25;2.97;;;2.10;;
18411;SDS011;27097;51.738;19.472;2023-07-02T12:24:52;4.80;;;2.30;;
18411;SDS011;27097;51.738;19.472;2023-07-02T12:27:21;2.28;;;2.08;;
18411;SDS011;27097;51.738;19.472;2023-07-02T12:29:48;2.22;;;2.00;;
18411;SDS011;27097;51.738;19.472;2023-07-02T12:32:14;2.67;;;2.00;;
18411;SDS011;27097;51.738;19.472;2023-07-02T12:34:41;2.20;;;2.00;;
18411;SDS011;27097;51.738;19.472;2023-07-02T12:37:09;4.47;;;2.00;;
18411;SDS011;27097;51.738;19.472;2023-07-02T12:39:38;2.40;;;2.13;;
18411;SDS011;27097;51.738;19.472;2023-07-02T12:42:05;2.00;;;1.80;;
18411;SDS011;27097;51.738;19.472;2023-07-02T12:44:32;2.63;;;2.15;;
18411;SDS011;27097;51.738;19.472;2023-07-02T12:46:59;2.17;;;1.98;;
18411;SDS011;27097;51.738;19.472;2023-07-02T12:49:26;2.50;;;2.22;;
18411;SDS011;27097;51.738;19.472;2023-07-02T12:51:53;2.20;;;2.00;;
18411;SDS011;27097;51.738;19.472;2023-07-02T12:54:21;2.95;;;2.22;;
18411;SDS011;27097;51.738;19.472;2023-07-02T12:56:48;5.00;;;2.30;;
18411;SDS011;27097;51.738;19.472;2023-07-02T12:59:15;4.13;;;2.13;;
18411;SDS011;27097;51.738;19.472;2023-07-02T13:01:41;2.38;;;2.17;;
18411;SDS011;27097;51.738;19.472;2023-07-02T13:04:08;2.88;;;2.60;;
18411;SDS011;27097;51.738;19.472;2023-07-02T13:06:35;2.70;;;1.95;;
18411;SDS011;27097;51.738;19.472;2023-07-02T13:09:05;2.53;;;2.00;;
18411;SDS011;27097;51.738;19.472;2023-07-02T13:11:33;2.83;;;2.30;;
18411;SDS011;27097;51.738;19.472;2023-07-02T13:14:00;4.28;;;2.58;;
18411;SDS011;27097;51.738;19.472;2023-07-02T13:16:27;4.07;;;2.42;;
18411;SDS011;27097;51.738;19.472;2023-07-02T13:18:54;3.50;;;2.50;;
18411;SDS011;27097;51.738;19.472;2023-07-02T13:21:22;3.80;;;2.47;;
18411;SDS011;27097;51.738;19.472;2023-07-02T13:23:48;3.97;;;2.20;;
18411;SDS011;27097;51.738;19.472;2023-07-02T13:26:15;3.55;;;2.40;;
18411;SDS011;27097;51.738;19.472;2023-07-02T13:28:43;5.22;;;2.38;;
18411;SDS011;27097;51.738;19.472;2023-07-02T13:31:12;4.15;;;2.58;;
18411;SDS011;27097;51.738;19.472;2023-07-02T13:33:39;4.22;;;2.50;;
18411;SDS011;27097;51.738;19.472;2023-07-02T13:36:06;4.72;;;2.63;;
18411;SDS011;27097;51.738;19.472;2023-07-02T13:38:33;4.50;;;2.15;;
18411;SDS011;27097;51.738;19.472;2023-07-02T13:41:00;3.53;;;2.60;;
18411;SDS011;27097;51.738;19.472;2023-07-02T13:43:27;3.28;;;2.35;;
18411;SDS011;27097;51.738;19.472;2023-07-02T13:45:55;4.90;;;2.63;;
18411;SDS011;27097;51.738;19.472;2023-07-02T13:48:22;4.38;;;2.50;;
18411;SDS011;27097;51.738;19.472;2023-07-02T13:50:49;2.55;;;2.22;;
18411;SDS011;27097;51.738;19.472;2023-07-02T13:53:16;3.25;;;2.40;;
18411;SDS011;27097;51.738;19.472;2023-07-02T13:55:42;2.70;;;2.30;;
18411;SDS011;27097;51.738;19.472;2023-07-02T13:58:09;4.53;;;2.63;;
18411;SDS011;27097;51.738;19.472;2023-07-02T14:00:37;3.47;;;2.40;;
18411;SDS011;27097;51.738;19.472;2023-07-02T14:03:04;3.33;;;2.50;;
18411;SDS011;27097;51.738;19.472;2023-07-02T14:05:31;3.67;;;2.50;;
18411;SDS011;27097;51.738;19.472;2023-07-02T14:07:59;3.22;;;2.50;;
18411;SDS011;27097;51.738;19.472;2023-07-02T14:10:26;3.22;;;2.25;;
18411;SDS011;27097;51.738;19.472;2023-07-02T14:12:53;2.58;;;2.15;;
18411;SDS011;27097;51.738;19.472;2023-07-02T14:15:20;4.25;;;2.60;;
18411;SDS011;27097;51.738;19.472;2023-07-02T14:17:49;3.60;;;2.60;;
18411;SDS011;27097;51.738;19.472;2023-07-02T14:20:16;3.50;;;2.30;;
18411;SDS011;27097;51.738;19.472;2023-07-02T14:22:43;5.60;;;2.30;;
18411;SDS011;27097;51.738;19.472;2023-07-02T14:25:10;3.42;;;2.58;;
18411;SDS011;27097;51.738;19.472;2023-07-02T14:27:37;3.85;;;2.17;;
18411;SDS011;27097;51.738;19.472;2023-07-02T14:30:04;2.55;;;2.30;;
18411;SDS011;27097;51.738;19.472;2023-07-02T14:32:33;2.30;;;2.00;;
18411;SDS011;27097;51.738;19.472;2023-07-02T14:35:02;4.28;;;2.17;;